createdAt,value
2022-08-14T00:01:02.782Z,15.80
2022-08-14T00:03:37.205Z,15.80
2022-08-14T00:06:13.903Z,15.90
2022-08-14T00:08:51.375Z,15.90
2022-08-14T00:11:19.637Z,15.90
2022-08-14T00:13:51.757Z,15.90
2022-08-14T00:16:40.849Z,15.80
2022-08-14T00:19:19.779Z,15.70
2022-08-14T00:21:51.831Z,15.60
2022-08-14T00:24:29.121Z,15.60
2022-08-14T00:27:02.317Z,15.60
2022-08-14T00:29:33.256Z,15.60
2022-08-14T00:32:51.848Z,15.50
2022-08-14T00:34:54.685Z,15.40
2022-08-14T00:37:23.328Z,15.40
2022-08-14T00:39:50.150Z,15.40
2022-08-14T00:42:52.517Z,15.20
2022-08-14T00:45:09.201Z,15.20
2022-08-14T00:47:43.271Z,15.30
2022-08-14T00:50:18.566Z,15.30
2022-08-14T00:52:52.884Z,15.20
2022-08-14T00:55:20.636Z,15.10
2022-08-14T00:57:48.234Z,15.10
2022-08-14T01:00:34.350Z,15.10
2022-08-14T01:03:06.048Z,15.00
2022-08-14T01:05:51.089Z,14.90
2022-08-14T01:08:51.415Z,14.80
2022-08-14T01:11:09.823Z,14.70
2022-08-14T01:13:42.254Z,14.80
2022-08-14T01:16:13.939Z,14.90
2022-08-14T01:18:42.239Z,14.90
2022-08-14T01:21:11.314Z,15.00
2022-08-14T01:23:46.648Z,15.00
2022-08-14T01:26:15.006Z,14.90
2022-08-14T01:29:03.856Z,15.00
2022-08-14T01:31:36.929Z,14.90
2022-08-14T01:35:20.261Z,14.90
2022-08-14T01:36:55.014Z,14.80
2022-08-14T01:39:22.374Z,14.60
2022-08-14T01:41:50.530Z,14.50
2022-08-14T01:44:31.963Z,14.40
2022-08-14T01:47:05.719Z,14.50
2022-08-14T01:49:35.255Z,14.60
2022-08-14T01:52:02.286Z,14.70
2022-08-14T01:54:38.313Z,14.70
2022-08-14T01:57:05.275Z,14.70
2022-08-14T01:59:37.983Z,14.70
2022-08-14T02:02:10.028Z,14.60
2022-08-14T02:04:55.681Z,14.70
2022-08-14T02:07:34.211Z,14.70
2022-08-14T02:10:13.263Z,14.70
2022-08-14T02:12:43.191Z,14.80
2022-08-14T02:15:10.141Z,14.70
2022-08-14T02:17:37.040Z,14.70
2022-08-14T02:20:05.918Z,14.80
2022-08-14T02:22:47.335Z,14.80
2022-08-14T02:25:16.773Z,14.70
2022-08-14T02:28:25.584Z,14.70
2022-08-14T02:30:31.517Z,14.70
2022-08-14T02:32:58.265Z,14.60
2022-08-14T02:35:26.577Z,14.60
2022-08-14T02:37:59.686Z,14.60
2022-08-14T02:40:31.822Z,14.50
2022-08-14T02:42:59.575Z,14.50
2022-08-14T02:45:32.841Z,14.50
2022-08-14T02:48:01.592Z,14.30
2022-08-14T02:50:28.614Z,14.20
2022-08-14T02:53:03.333Z,14.20
2022-08-14T02:55:30.616Z,14.20
2022-08-14T02:57:58.100Z,14.20
2022-08-14T03:00:31.104Z,14.10
2022-08-14T03:02:59.545Z,14.20
2022-08-14T03:05:27.042Z,14.20
2022-08-14T03:07:53.676Z,14.20
2022-08-14T03:10:28.260Z,14.10
2022-08-14T03:12:59.140Z,14.00
2022-08-14T03:15:27.677Z,13.90
2022-08-14T03:17:57.062Z,13.80
2022-08-14T03:20:26.892Z,13.80
2022-08-14T03:22:53.905Z,13.70
2022-08-14T03:25:20.677Z,13.80
2022-08-14T03:27:48.616Z,13.80
2022-08-14T03:30:39.634Z,13.80
2022-08-14T03:33:10.546Z,13.80
2022-08-14T03:35:40.314Z,13.80
2022-08-14T03:39:13.005Z,13.80
2022-08-14T03:41:19.377Z,13.80
2022-08-14T03:43:57.826Z,13.80
2022-08-14T03:46:38.911Z,13.80
2022-08-14T03:49:28.589Z,13.70
2022-08-14T03:52:00.844Z,13.60
2022-08-14T03:54:28.965Z,13.50
2022-08-14T03:56:55.842Z,13.40
2022-08-14T03:59:22.461Z,13.40
2022-08-14T04:01:57.740Z,13.30
2022-08-14T04:04:27.929Z,13.30
2022-08-14T04:06:55.045Z,13.40
2022-08-14T04:09:26.669Z,13.40
2022-08-14T04:11:54.047Z,13.50
2022-08-14T04:14:22.980Z,13.50
2022-08-14T04:16:50.568Z,13.50
2022-08-14T04:19:17.475Z,13.50
2022-08-14T04:22:03.373Z,13.50
2022-08-14T04:24:37.950Z,13.50
2022-08-14T04:27:07.648Z,13.50
2022-08-14T04:29:38.487Z,13.50
2022-08-14T04:32:59.211Z,13.50
2022-08-14T04:34:55.148Z,13.50
2022-08-14T04:37:24.735Z,13.50
2022-08-14T04:39:57.347Z,13.50
2022-08-14T04:42:24.618Z,13.40
2022-08-14T04:44:52.398Z,13.30
2022-08-14T04:47:27.541Z,13.30
2022-08-14T04:49:57.898Z,13.30
2022-08-14T04:52:25.441Z,13.40
2022-08-14T04:54:52.482Z,13.50
2022-08-14T04:57:21.459Z,13.70
2022-08-14T04:59:49.427Z,13.70
2022-08-14T05:02:17.677Z,13.70
2022-08-14T05:04:45.194Z,13.60
2022-08-14T05:07:12.253Z,13.70
2022-08-14T05:09:43.939Z,13.80
2022-08-14T05:13:13.308Z,14.00
2022-08-14T05:15:01.350Z,14.10
2022-08-14T05:17:31.992Z,14.20
2022-08-14T05:21:54.427Z,14.30
2022-08-14T05:22:57.517Z,14.40
2022-08-14T05:25:25.755Z,14.50
2022-08-14T05:27:57.739Z,14.40
2022-08-14T05:30:25.637Z,14.80
2022-08-14T05:32:53.277Z,15.10
2022-08-14T05:35:19.896Z,15.20
2022-08-14T05:37:48.460Z,15.40
2022-08-14T05:40:16.182Z,15.50
2022-08-14T05:42:46.571Z,15.60
2022-08-14T05:45:19.555Z,15.70
2022-08-14T05:47:46.431Z,15.70
2022-08-14T05:50:19.040Z,15.80
2022-08-14T05:52:51.052Z,15.80
2022-08-14T05:55:21.992Z,15.90
2022-08-14T05:57:54.828Z,16.10
2022-08-14T06:00:29.322Z,16.30
2022-08-14T06:03:00.458Z,16.50
2022-08-14T06:05:29.040Z,16.80
2022-08-14T06:07:57.656Z,16.90
2022-08-14T06:10:24.774Z,17.10
2022-08-14T06:12:56.747Z,17.20
2022-08-14T06:15:28.983Z,17.30
2022-08-14T06:17:59.314Z,17.50
2022-08-14T06:20:26.943Z,17.60
2022-08-14T06:22:55.219Z,17.70
2022-08-14T06:25:23.207Z,17.90
2022-08-14T06:27:50.212Z,18.10
2022-08-14T06:30:23.691Z,18.30
2022-08-14T06:32:57.678Z,18.50
2022-08-14T06:35:24.972Z,18.60
2022-08-14T06:37:57.882Z,18.90
2022-08-14T06:40:28.286Z,18.90
2022-08-14T06:42:56.877Z,19.10
2022-08-14T06:45:27.672Z,19.30
2022-08-14T06:47:54.985Z,19.70
2022-08-14T06:50:27.936Z,19.80
2022-08-14T06:52:55.803Z,19.90
2022-08-14T06:55:27.816Z,20.00
2022-08-14T06:57:55.471Z,20.20
2022-08-14T07:00:26.726Z,20.50
2022-08-14T07:02:54.527Z,20.50
2022-08-14T07:05:23.250Z,20.60
2022-08-14T07:07:51.063Z,20.50
2022-08-14T07:10:17.797Z,20.50
2022-08-14T07:12:56.631Z,20.70
2022-08-14T07:15:32.434Z,20.80
2022-08-14T07:18:01.367Z,21.00
2022-08-14T07:20:31.442Z,21.20
2022-08-14T07:23:05.344Z,21.50
2022-08-14T07:25:39.965Z,21.60
2022-08-14T07:28:12.967Z,21.60
2022-08-14T07:30:50.789Z,21.60
2022-08-14T07:33:20.799Z,21.80
2022-08-14T07:35:58.230Z,21.90
2022-08-14T07:38:26.456Z,22.20
2022-08-14T07:40:54.342Z,22.30
2022-08-14T07:43:22.985Z,22.50
2022-08-14T07:45:50.680Z,22.60
2022-08-14T07:48:17.575Z,22.70
2022-08-14T07:50:46.635Z,22.90
2022-08-14T07:53:14.291Z,23.00
2022-08-14T07:55:42.503Z,23.00
2022-08-14T07:58:30.358Z,23.20
2022-08-14T08:00:57.096Z,23.30
2022-08-14T08:03:25.495Z,23.40
2022-08-14T08:05:54.979Z,23.60
2022-08-14T08:08:26.956Z,23.70
2022-08-14T08:11:02.939Z,23.80
2022-08-14T08:13:33.809Z,23.90
2022-08-14T08:16:06.581Z,23.90
2022-08-14T08:18:33.210Z,24.00
2022-08-14T08:21:02.911Z,24.10
2022-08-14T08:23:39.951Z,24.20
2022-08-14T08:26:07.885Z,24.30
2022-08-14T08:28:35.116Z,24.50
2022-08-14T08:31:05.327Z,24.60
2022-08-14T08:33:37.084Z,24.80
2022-08-14T08:36:07.919Z,24.80
2022-08-14T08:39:18.185Z,24.80
2022-08-14T08:41:21.874Z,25.00
2022-08-14T08:43:51.175Z,25.10
2022-08-14T08:46:21.451Z,25.20
2022-08-14T08:51:34.587Z,25.40
2022-08-14T08:54:03.978Z,25.40
2022-08-14T08:56:42.266Z,25.60
2022-08-14T08:59:36.114Z,25.60
2022-08-14T09:02:10.308Z,25.70
2022-08-14T09:04:45.392Z,25.70
2022-08-14T09:07:25.724Z,25.80
2022-08-14T09:09:59.512Z,26.00
2022-08-14T09:12:32.667Z,26.20
2022-08-14T09:15:01.888Z,26.20
2022-08-14T09:17:28.904Z,26.40
2022-08-14T09:19:55.895Z,26.50
2022-08-14T09:22:35.138Z,26.60
2022-08-14T09:25:10.618Z,26.70
2022-08-14T09:27:38.025Z,26.80
2022-08-14T09:30:31.563Z,26.70
2022-08-14T09:33:09.028Z,26.60
2022-08-14T09:36:18.500Z,26.60
2022-08-14T09:39:21.207Z,26.70
2022-08-14T09:42:20.089Z,26.90
2022-08-14T09:45:12.157Z,27.00
2022-08-14T09:47:49.163Z,27.10
2022-08-14T09:50:21.699Z,27.10
2022-08-14T09:53:01.073Z,27.10
2022-08-14T09:55:36.498Z,27.20
2022-08-14T09:58:19.602Z,27.30
2022-08-14T10:00:52.690Z,27.40
2022-08-14T10:03:33.340Z,27.60
2022-08-14T10:06:10.739Z,27.70
2022-08-14T10:08:57.979Z,27.70
2022-08-14T10:11:34.940Z,27.60
2022-08-14T10:14:35.301Z,27.60
2022-08-14T10:17:04.850Z,27.80
2022-08-14T10:19:35.827Z,28.00
2022-08-14T10:23:13.150Z,28.20
2022-08-14T10:24:57.561Z,28.10
2022-08-14T10:27:27.005Z,28.10
2022-08-14T10:29:59.105Z,28.10
2022-08-14T10:32:36.388Z,28.10
2022-08-14T10:35:14.187Z,28.30
2022-08-14T10:37:50.106Z,28.30
2022-08-14T10:40:37.629Z,28.30
2022-08-14T10:43:24.974Z,28.40
2022-08-14T10:45:59.685Z,28.70
2022-08-14T10:48:36.339Z,28.60
2022-08-14T10:51:08.362Z,28.80
2022-08-14T10:53:36.543Z,28.70
2022-08-14T10:56:21.809Z,28.80
2022-08-14T10:59:04.769Z,29.00
2022-08-14T11:01:38.556Z,29.20
2022-08-14T11:04:26.029Z,29.30
2022-08-14T11:06:55.499Z,29.30
2022-08-14T11:09:23.025Z,29.00
2022-08-14T11:11:55.696Z,29.20
2022-08-14T11:14:23.104Z,29.10
2022-08-14T11:16:54.133Z,29.10
2022-08-14T11:19:24.287Z,29.10
2022-08-14T11:21:56.127Z,29.30
2022-08-14T11:24:55.356Z,29.50
2022-08-14T11:27:16.435Z,29.60
2022-08-14T11:29:47.927Z,29.70
2022-08-14T11:32:19.628Z,29.80
2022-08-14T11:34:46.877Z,29.80
2022-08-14T11:37:23.672Z,29.90
2022-08-14T11:39:53.790Z,30.00
2022-08-14T11:42:57.687Z,30.00
2022-08-14T11:45:16.924Z,30.10
2022-08-14T11:48:13.748Z,30.10
2022-08-14T11:50:37.940Z,29.80
2022-08-14T11:53:06.801Z,29.90
2022-08-14T11:55:39.120Z,30.10
2022-08-14T11:58:11.988Z,30.20
2022-08-14T12:00:52.628Z,30.40
2022-08-14T12:03:37.750Z,30.50
2022-08-14T12:06:28.105Z,30.60
2022-08-14T12:08:56.866Z,30.60
2022-08-14T12:11:43.345Z,30.60
2022-08-14T12:14:13.565Z,30.60
2022-08-14T12:17:01.994Z,30.80
2022-08-14T12:19:29.236Z,30.80
2022-08-14T12:22:00.682Z,31.00
2022-08-14T12:24:35.760Z,31.00
2022-08-14T12:27:03.746Z,31.10
2022-08-14T12:29:31.864Z,31.10
2022-08-14T12:32:03.627Z,31.00
2022-08-14T12:34:34.657Z,31.00
2022-08-14T12:37:05.671Z,31.10
2022-08-14T12:39:39.974Z,31.30
2022-08-14T12:42:07.898Z,31.30
2022-08-14T12:44:38.424Z,31.40
2022-08-14T12:47:13.268Z,31.40
2022-08-14T12:49:53.566Z,31.50
2022-08-14T12:52:45.212Z,31.70
2022-08-14T12:55:18.752Z,31.80
2022-08-14T12:57:49.203Z,32.00
2022-08-14T13:00:23.681Z,31.70
2022-08-14T13:02:55.263Z,31.60
2022-08-14T13:05:31.350Z,31.70
2022-08-14T13:07:59.953Z,31.80
2022-08-14T13:10:51.286Z,32.00
2022-08-14T13:13:19.271Z,32.00
2022-08-14T13:15:56.065Z,32.10
2022-08-14T13:18:26.285Z,32.20
2022-08-14T13:20:57.846Z,31.60
2022-08-14T13:23:32.463Z,31.90
2022-08-14T13:25:59.869Z,31.90
2022-08-14T13:28:33.164Z,31.90
2022-08-14T13:31:02.119Z,32.10
2022-08-14T13:33:29.663Z,32.10
2022-08-14T13:36:01.215Z,32.10
2022-08-14T13:38:28.583Z,31.70
2022-08-14T13:40:57.663Z,31.80
2022-08-14T13:43:24.929Z,31.70
2022-08-14T13:46:00.962Z,31.80
2022-08-14T13:48:33.071Z,31.70
2022-08-14T13:51:07.886Z,31.50
2022-08-14T13:54:06.945Z,31.60
2022-08-14T13:56:40.418Z,31.50
2022-08-14T13:59:08.605Z,31.50
2022-08-14T14:01:43.034Z,31.50
2022-08-14T14:04:19.512Z,31.40
2022-08-14T14:06:48.962Z,31.30
2022-08-14T14:09:20.827Z,31.20
2022-08-14T14:11:47.877Z,31.40
2022-08-14T14:14:44.503Z,31.30
2022-08-14T14:17:09.991Z,31.10
2022-08-14T14:19:37.947Z,31.00
2022-08-14T14:22:05.619Z,31.00
2022-08-14T14:24:36.646Z,30.80
2022-08-14T14:27:30.033Z,30.90
2022-08-14T14:29:55.737Z,30.80
2022-08-14T14:32:32.282Z,30.90
2022-08-14T14:35:03.587Z,30.80
2022-08-14T14:37:30.891Z,30.70
2022-08-14T14:40:54.524Z,30.50
2022-08-14T14:42:53.271Z,30.50
2022-08-14T14:45:23.011Z,30.40
2022-08-14T14:47:59.462Z,30.30
2022-08-14T14:50:26.555Z,30.40
2022-08-14T14:53:13.064Z,30.40
2022-08-14T14:55:43.014Z,30.40
2022-08-14T14:58:27.079Z,30.30
2022-08-14T15:00:58.532Z,30.40
2022-08-14T15:03:26.150Z,30.30
2022-08-14T15:05:54.221Z,30.20
2022-08-14T15:08:26.788Z,30.20
2022-08-14T15:11:13.448Z,30.20
2022-08-14T15:13:43.118Z,30.20
2022-08-14T15:16:19.936Z,30.00
2022-08-14T15:18:49.196Z,30.00
2022-08-14T15:21:16.133Z,30.00
2022-08-14T15:23:44.230Z,29.90
2022-08-14T15:26:23.929Z,29.90
2022-08-14T15:29:04.908Z,30.00
2022-08-14T15:31:35.008Z,30.10
2022-08-14T15:34:44.088Z,30.10
2022-08-14T15:36:49.743Z,30.30
2022-08-14T15:39:24.992Z,30.10
2022-08-14T15:41:57.204Z,30.10
2022-08-14T15:44:27.999Z,30.20
2022-08-14T15:47:00.132Z,30.10
2022-08-14T15:49:28.599Z,30.20
2022-08-14T15:52:01.717Z,30.20
2022-08-14T15:54:31.582Z,30.30
2022-08-14T15:57:08.423Z,30.40
2022-08-14T15:59:36.272Z,30.50
2022-08-14T16:02:06.000Z,30.60
2022-08-14T16:04:35.562Z,30.50
2022-08-14T16:07:05.085Z,30.60
2022-08-14T16:09:36.011Z,30.80
2022-08-14T16:12:02.847Z,30.90
2022-08-14T16:14:29.564Z,30.60
2022-08-14T16:17:00.455Z,30.40
2022-08-14T16:19:29.338Z,30.50
2022-08-14T16:22:56.755Z,30.30
2022-08-14T16:25:02.503Z,30.20
2022-08-14T16:27:41.117Z,30.20
2022-08-14T16:33:01.982Z,29.80
2022-08-14T16:35:42.404Z,29.60
2022-08-14T16:38:45.736Z,29.50
2022-08-14T16:40:24.434Z,30.00
2022-08-14T16:41:06.689Z,29.40
2022-08-14T16:43:33.692Z,29.30
2022-08-14T16:46:00.607Z,29.30
2022-08-14T16:48:54.990Z,29.10
2022-08-14T16:51:15.164Z,29.00
2022-08-14T16:53:42.277Z,29.00
2022-08-14T16:56:23.678Z,29.00
2022-08-14T16:59:04.940Z,28.90
2022-08-14T17:01:32.268Z,28.90
2022-08-14T17:04:04.671Z,28.70
2022-08-14T17:06:36.145Z,28.70
2022-08-14T17:09:05.623Z,28.60
2022-08-14T17:11:33.503Z,28.50
2022-08-14T17:14:06.614Z,28.50
2022-08-14T17:16:37.351Z,28.50
2022-08-14T17:19:05.926Z,28.40
2022-08-14T17:21:41.522Z,28.30
2022-08-14T17:24:58.121Z,28.30
2022-08-14T17:27:04.243Z,28.20
2022-08-14T17:29:35.057Z,28.10
2022-08-14T17:32:28.403Z,28.00
2022-08-14T17:35:10.057Z,28.00
2022-08-14T17:37:45.164Z,27.90
2022-08-14T17:40:16.977Z,27.80
2022-08-14T17:42:51.882Z,27.80
2022-08-14T17:45:27.047Z,27.60
2022-08-14T17:47:57.301Z,27.60
2022-08-14T17:50:59.944Z,27.50
2022-08-14T17:53:28.189Z,27.50
2022-08-14T17:56:03.086Z,27.40
2022-08-14T17:58:41.672Z,27.40
2022-08-14T18:01:13.371Z,27.30
2022-08-14T18:03:49.862Z,27.30
2022-08-14T18:06:38.369Z,27.20
2022-08-14T18:09:09.455Z,27.10
2022-08-14T18:11:57.910Z,26.90
2022-08-14T18:14:32.789Z,26.80
2022-08-14T18:17:13.965Z,26.60
2022-08-14T18:19:42.747Z,26.50
2022-08-14T18:22:30.874Z,26.40
2022-08-14T18:24:57.599Z,26.20
2022-08-14T18:27:46.961Z,26.00
2022-08-14T18:30:31.957Z,25.80
2022-08-14T18:33:19.023Z,25.70
2022-08-14T18:35:58.696Z,25.60
2022-08-14T18:38:45.625Z,25.50
2022-08-14T18:41:37.329Z,25.40
2022-08-14T18:44:10.182Z,25.30
2022-08-14T18:47:08.682Z,25.20
2022-08-14T18:50:27.618Z,25.10
2022-08-14T18:53:10.714Z,25.00
2022-08-14T18:55:37.774Z,24.90
2022-08-14T18:58:31.099Z,24.80
2022-08-14T19:00:59.780Z,24.70
2022-08-14T19:03:36.566Z,24.60
2022-08-14T19:06:08.870Z,24.50
2022-08-14T19:08:50.243Z,24.50
2022-08-14T19:11:32.500Z,24.30
2022-08-14T19:14:00.412Z,24.20
2022-08-14T19:16:33.684Z,24.10
2022-08-14T19:19:04.015Z,24.00
2022-08-14T19:21:38.273Z,23.90
2022-08-14T19:24:29.991Z,23.90
2022-08-14T19:27:24.828Z,23.80
2022-08-14T19:30:20.259Z,23.60
2022-08-14T19:32:50.617Z,23.60
2022-08-14T19:35:18.970Z,23.50
2022-08-14T19:37:52.595Z,23.40
2022-08-14T19:40:34.607Z,23.30
2022-08-14T19:43:02.880Z,23.30
2022-08-14T19:45:29.940Z,23.20
2022-08-14T19:48:01.248Z,23.20
2022-08-14T19:50:38.175Z,23.10
2022-08-14T19:53:10.714Z,23.10
2022-08-14T19:55:45.495Z,23.00
2022-08-14T19:58:13.240Z,23.00
2022-08-14T20:00:52.569Z,22.80
2022-08-14T20:03:23.360Z,22.70
2022-08-14T20:05:58.806Z,22.60
2022-08-14T20:09:05.779Z,22.60
2022-08-14T20:12:01.787Z,22.50
2022-08-14T20:14:30.273Z,22.30
2022-08-14T20:17:05.928Z,22.10
2022-08-14T20:19:33.692Z,22.00
2022-08-14T20:22:35.468Z,22.10
2022-08-14T20:24:54.132Z,22.10
2022-08-14T20:27:36.579Z,22.10
2022-08-14T20:30:29.738Z,22.10
2022-08-14T20:32:59.390Z,22.10
2022-08-14T20:35:35.166Z,22.20
2022-08-14T20:38:31.254Z,22.20
2022-08-14T20:41:07.514Z,22.20
2022-08-14T20:43:38.683Z,22.10
2022-08-14T20:46:38.571Z,22.10
2022-08-14T20:49:11.985Z,22.10
2022-08-14T20:51:54.674Z,22.00
2022-08-14T20:54:34.460Z,21.90
2022-08-14T20:57:10.888Z,21.70
2022-08-14T20:59:59.046Z,21.70
2022-08-14T21:02:34.459Z,21.60
2022-08-14T21:05:16.772Z,21.60
2022-08-14T21:07:51.253Z,21.60
2022-08-14T21:10:33.163Z,21.50
2022-08-14T21:13:25.665Z,21.50
2022-08-14T21:15:57.687Z,21.40
2022-08-14T21:18:32.117Z,21.30
2022-08-14T21:21:06.768Z,21.30
2022-08-14T21:23:36.503Z,21.10
2022-08-14T21:26:50.648Z,21.10
2022-08-14T21:29:08.354Z,21.00
2022-08-14T21:31:34.960Z,21.10
2022-08-14T21:34:01.704Z,21.10
2022-08-14T21:36:32.682Z,21.00
2022-08-14T21:39:00.134Z,21.00
2022-08-14T21:41:42.175Z,21.10
2022-08-14T21:44:17.680Z,21.10
2022-08-14T21:46:53.320Z,21.10
2022-08-14T21:49:34.390Z,21.20
2022-08-14T21:52:50.621Z,21.20
2022-08-14T21:54:59.332Z,21.30
2022-08-14T21:57:56.467Z,21.20
2022-08-14T22:00:35.346Z,20.90
2022-08-14T22:03:05.672Z,20.80
2022-08-14T22:05:32.600Z,20.80
2022-08-14T22:07:59.484Z,20.80
2022-08-14T22:10:29.597Z,20.80
2022-08-14T22:13:00.376Z,20.80
2022-08-14T22:15:28.942Z,20.90
2022-08-14T22:17:57.325Z,20.90
2022-08-14T22:20:25.853Z,20.90
2022-08-14T22:22:56.025Z,20.90
2022-08-14T22:25:23.377Z,20.90
2022-08-14T22:28:06.042Z,20.80
2022-08-14T22:30:34.120Z,20.80
2022-08-14T22:33:01.565Z,20.80
2022-08-14T22:35:29.386Z,20.80
2022-08-14T22:38:30.574Z,20.70
2022-08-14T22:40:59.601Z,20.80
2022-08-14T22:43:32.469Z,20.70
2022-08-14T22:46:02.704Z,20.70
2022-08-14T22:48:32.997Z,20.70
2022-08-14T22:50:59.683Z,20.70
2022-08-14T22:53:29.562Z,20.50
2022-08-14T22:55:56.778Z,20.50
2022-08-14T22:58:31.837Z,20.50
2022-08-14T23:01:06.585Z,20.50
2022-08-14T23:03:39.868Z,20.50
2022-08-14T23:07:02.964Z,20.50
2022-08-14T23:09:34.858Z,20.60
2022-08-14T23:11:44.069Z,20.40
2022-08-14T23:14:12.157Z,20.30
2022-08-14T23:16:39.858Z,20.40
2022-08-14T23:19:09.285Z,20.40
2022-08-14T23:21:35.946Z,20.40
2022-08-14T23:24:13.752Z,20.40
2022-08-14T23:26:49.212Z,20.40
2022-08-14T23:29:18.417Z,20.50
2022-08-14T23:31:45.351Z,20.50
2022-08-14T23:34:20.493Z,20.30
2022-08-14T23:36:53.188Z,20.40
2022-08-14T23:39:21.348Z,20.40
2022-08-14T23:41:53.132Z,20.30
2022-08-14T23:44:23.735Z,20.40
2022-08-14T23:46:52.823Z,20.30
2022-08-14T23:49:25.005Z,20.40
2022-08-14T23:51:59.714Z,20.30
2022-08-14T23:54:48.475Z,20.30
2022-08-14T23:57:19.084Z,20.40
2022-08-14T23:59:54.859Z,20.30
